sensor_id;sensor_type;location;lat;lon;timestamp;P1;durP1;ratioP1;P2;durP2;ratioP2
18114;SDS011;9184;54.390;18.620;2023-03-13T00:00:09;49.20;;;23.33;;
18114;SDS011;9184;54.390;18.620;2023-03-13T00:00:39;50.57;;;23.77;;
18114;SDS011;9184;54.390;18.620;2023-03-13T00:01:11;48.57;;;22.87;;
18114;SDS011;9184;54.390;18.620;2023-03-13T00:01:44;55.20;;;23.33;;
18114;SDS011;9184;54.390;18.620;2023-03-13T00:02:15;43.93;;;21.97;;
18114;SDS011;9184;54.390;18.620;2023-03-13T00:02:45;59.90;;;24.57;;
18114;SDS011;9184;54.390;18.620;2023-03-13T00:03:17;43.57;;;22.33;;
18114;SDS011;9184;54.390;18.620;2023-03-13T00:03:47;35.57;;;17.10;;
18114;SDS011;9184;54.390;18.620;2023-03-13T00:04:18;56.90;;;24.77;;
18114;SDS011;9184;54.390;18.620;2023-03-13T00:04:50;47.77;;;23.03;;
18114;SDS011;9184;54.390;18.620;2023-03-13T00:05:20;54.03;;;23.43;;
18114;SDS011;9184;54.390;18.620;2023-03-13T00:05:54;51.07;;;24.23;;
18114;SDS011;9184;54.390;18.620;2023-03-13T00:06:25;47.55;;;22.52;;
18114;SDS011;9184;54.390;18.620;2023-03-13T00:06:57;50.90;;;22.30;;
18114;SDS011;9184;54.390;18.620;2023-03-13T00:07:27;48.73;;;22.53;;
18114;SDS011;9184;54.390;18.620;2023-03-13T00:07:58;55.00;;;22.60;;
18114;SDS011;9184;54.390;18.620;2023-03-13T00:08:29;48.78;;;22.90;;
18114;SDS011;9184;54.390;18.620;2023-03-13T00:09:00;43.33;;;22.63;;
18114;SDS011;9184;54.390;18.620;2023-03-13T00:09:30;45.47;;;23.10;;
18114;SDS011;9184;54.390;18.620;2023-03-13T00:10:02;51.37;;;24.27;;
18114;SDS011;9184;54.390;18.620;2023-03-13T00:10:35;44.73;;;22.83;;
18114;SDS011;9184;54.390;18.620;2023-03-13T00:11:07;39.77;;;21.50;;
18114;SDS011;9184;54.390;18.620;2023-03-13T00:11:38;48.13;;;21.47;;
18114;SDS011;9184;54.390;18.620;2023-03-13T00:12:10;49.40;;;22.42;;
18114;SDS011;9184;54.390;18.620;2023-03-13T00:12:40;51.80;;;23.70;;
18114;SDS011;9184;54.390;18.620;2023-03-13T00:13:11;50.33;;;22.23;;
18114;SDS011;9184;54.390;18.620;2023-03-13T00:13:42;49.13;;;22.85;;
18114;SDS011;9184;54.390;18.620;2023-03-13T00:14:13;55.03;;;22.83;;
18114;SDS011;9184;54.390;18.620;2023-03-13T00:14:43;52.23;;;24.17;;
18114;SDS011;9184;54.390;18.620;2023-03-13T00:15:15;45.03;;;23.07;;
18114;SDS011;9184;54.390;18.620;2023-03-13T00:15:45;48.23;;;23.60;;
18114;SDS011;9184;54.390;18.620;2023-03-13T00:16:16;54.00;;;24.37;;
18114;SDS011;9184;54.390;18.620;2023-03-13T00:16:46;43.90;;;21.80;;
18114;SDS011;9184;54.390;18.620;2023-03-13T00:17:18;49.33;;;23.95;;
18114;SDS011;9184;54.390;18.620;2023-03-13T00:17:48;52.43;;;23.57;;
18114;SDS011;9184;54.390;18.620;2023-03-13T00:18:19;50.00;;;23.57;;
18114;SDS011;9184;54.390;18.620;2023-03-13T00:18:51;47.23;;;22.73;;
18114;SDS011;9184;54.390;18.620;2023-03-13T00:19:22;49.10;;;22.33;;
18114;SDS011;9184;54.390;18.620;2023-03-13T00:19:52;43.60;;;21.00;;
18114;SDS011;9184;54.390;18.620;2023-03-13T00:20:24;42.53;;;21.75;;
18114;SDS011;9184;54.390;18.620;2023-03-13T00:20:58;48.13;;;21.97;;
18114;SDS011;9184;54.390;18.620;2023-03-13T00:21:29;46.27;;;21.40;;
18114;SDS011;9184;54.390;18.620;2023-03-13T00:22:01;48.57;;;22.03;;
18114;SDS011;9184;54.390;18.620;2023-03-13T00:22:31;48.53;;;20.80;;
18114;SDS011;9184;54.390;18.620;2023-03-13T00:23:01;47.53;;;22.27;;
18114;SDS011;9184;54.390;18.620;2023-03-13T00:23:34;51.13;;;23.20;;
18114;SDS011;9184;54.390;18.620;2023-03-13T00:24:05;43.00;;;20.77;;
18114;SDS011;9184;54.390;18.620;2023-03-13T00:24:37;43.10;;;22.57;;
18114;SDS011;9184;54.390;18.620;2023-03-13T00:25:08;44.70;;;20.97;;
18114;SDS011;9184;54.390;18.620;2023-03-13T00:25:38;46.73;;;21.77;;
18114;SDS011;9184;54.390;18.620;2023-03-13T00:26:10;54.57;;;22.67;;
18114;SDS011;9184;54.390;18.620;2023-03-13T00:26:42;50.30;;;23.03;;
18114;SDS011;9184;54.390;18.620;2023-03-13T00:27:13;44.47;;;22.03;;
18114;SDS011;9184;54.390;18.620;2023-03-13T00:27:43;43.23;;;20.40;;
18114;SDS011;9184;54.390;18.620;2023-03-13T00:28:15;42.07;;;21.07;;
18114;SDS011;9184;54.390;18.620;2023-03-13T00:28:45;44.50;;;20.93;;
18114;SDS011;9184;54.390;18.620;2023-03-13T00:29:16;43.53;;;19.83;;
18114;SDS011;9184;54.390;18.620;2023-03-13T00:29:46;43.83;;;21.33;;
18114;SDS011;9184;54.390;18.620;2023-03-13T00:30:19;47.22;;;22.08;;
18114;SDS011;9184;54.390;18.620;2023-03-13T00:30:50;43.43;;;20.53;;
18114;SDS011;9184;54.390;18.620;2023-03-13T00:31:21;38.53;;;20.63;;
18114;SDS011;9184;54.390;18.620;2023-03-13T00:31:51;49.95;;;21.10;;
18114;SDS011;9184;54.390;18.620;2023-03-13T00:32:23;49.17;;;22.90;;
18114;SDS011;9184;54.390;18.620;2023-03-13T00:32:53;45.37;;;22.17;;
18114;SDS011;9184;54.390;18.620;2023-03-13T00:33:24;49.17;;;24.20;;
18114;SDS011;9184;54.390;18.620;2023-03-13T00:33:56;44.00;;;21.90;;
18114;SDS011;9184;54.390;18.620;2023-03-13T00:34:28;46.53;;;20.67;;
18114;SDS011;9184;54.390;18.620;2023-03-13T00:34:59;44.93;;;21.43;;
18114;SDS011;9184;54.390;18.620;2023-03-13T00:35:29;42.83;;;22.23;;
18114;SDS011;9184;54.390;18.620;2023-03-13T00:36:01;46.07;;;21.67;;
18114;SDS011;9184;54.390;18.620;2023-03-13T00:36:32;40.77;;;21.80;;
18114;SDS011;9184;54.390;18.620;2023-03-13T00:37:03;47.65;;;21.35;;
18114;SDS011;9184;54.390;18.620;2023-03-13T00:37:35;42.03;;;21.13;;
18114;SDS011;9184;54.390;18.620;2023-03-13T00:38:05;43.03;;;20.17;;
18114;SDS011;9184;54.390;18.620;2023-03-13T00:38:36;48.27;;;22.37;;
18114;SDS011;9184;54.390;18.620;2023-03-13T00:39:06;45.10;;;21.37;;
18114;SDS011;9184;54.390;18.620;2023-03-13T00:39:38;56.97;;;22.57;;
18114;SDS011;9184;54.390;18.620;2023-03-13T00:40:09;42.70;;;21.60;;
18114;SDS011;9184;54.390;18.620;2023-03-13T00:40:39;48.93;;;21.80;;
18114;SDS011;9184;54.390;18.620;2023-03-13T00:41:12;45.70;;;21.07;;
18114;SDS011;9184;54.390;18.620;2023-03-13T00:41:43;41.67;;;21.10;;
18114;SDS011;9184;54.390;18.620;2023-03-13T00:42:14;46.77;;;22.07;;
18114;SDS011;9184;54.390;18.620;2023-03-13T00:42:44;43.93;;;23.23;;
18114;SDS011;9184;54.390;18.620;2023-03-13T00:43:16;44.70;;;21.40;;
18114;SDS011;9184;54.390;18.620;2023-03-13T00:43:46;43.57;;;21.40;;
18114;SDS011;9184;54.390;18.620;2023-03-13T00:44:17;44.80;;;23.07;;
18114;SDS011;9184;54.390;18.620;2023-03-13T00:44:49;46.07;;;22.30;;
18114;SDS011;9184;54.390;18.620;2023-03-13T00:45:19;45.50;;;22.63;;
18114;SDS011;9184;54.390;18.620;2023-03-13T00:45:49;49.00;;;22.53;;
18114;SDS011;9184;54.390;18.620;2023-03-13T00:46:22;44.67;;;21.95;;
18114;SDS011;9184;54.390;18.620;2023-03-13T00:46:52;47.80;;;21.90;;
18114;SDS011;9184;54.390;18.620;2023-03-13T00:47:23;46.67;;;22.57;;
18114;SDS011;9184;54.390;18.620;2023-03-13T00:47:54;51.60;;;22.77;;
18114;SDS011;9184;54.390;18.620;2023-03-13T00:48:25;50.63;;;22.90;;
18114;SDS011;9184;54.390;18.620;2023-03-13T00:48:56;48.10;;;22.97;;
18114;SDS011;9184;54.390;18.620;2023-03-13T00:49:28;51.87;;;23.47;;
18114;SDS011;9184;54.390;18.620;2023-03-13T00:49:58;57.63;;;22.30;;
18114;SDS011;9184;54.390;18.620;2023-03-13T00:50:29;47.67;;;23.43;;
18114;SDS011;9184;54.390;18.620;2023-03-13T00:50:59;43.53;;;21.60;;
18114;SDS011;9184;54.390;18.620;2023-03-13T00:51:32;47.93;;;22.90;;
18114;SDS011;9184;54.390;18.620;2023-03-13T00:52:03;46.07;;;21.80;;
18114;SDS011;9184;54.390;18.620;2023-03-13T00:52:33;44.23;;;22.33;;
18114;SDS011;9184;54.390;18.620;2023-03-13T00:53:05;45.40;;;22.03;;
18114;SDS011;9184;54.390;18.620;2023-03-13T00:53:35;45.73;;;21.93;;
18114;SDS011;9184;54.390;18.620;2023-03-13T00:54:06;41.37;;;22.70;;
18114;SDS011;9184;54.390;18.620;2023-03-13T00:54:37;43.90;;;22.43;;
18114;SDS011;9184;54.390;18.620;2023-03-13T00:55:08;44.93;;;21.67;;
18114;SDS011;9184;54.390;18.620;2023-03-13T00:55:40;48.13;;;24.27;;
18114;SDS011;9184;54.390;18.620;2023-03-13T00:56:21;45.57;;;22.37;;
18114;SDS011;9184;54.390;18.620;2023-03-13T00:56:53;47.27;;;23.27;;
18114;SDS011;9184;54.390;18.620;2023-03-13T00:57:23;44.03;;;22.13;;
18114;SDS011;9184;54.390;18.620;2023-03-13T00:57:53;51.83;;;23.03;;
18114;SDS011;9184;54.390;18.620;2023-03-13T00:58:26;51.00;;;23.83;;
18114;SDS011;9184;54.390;18.620;2023-03-13T00:58:58;46.43;;;22.53;;
18114;SDS011;9184;54.390;18.620;2023-03-13T00:59:28;47.43;;;22.73;;
18114;SDS011;9184;54.390;18.620;2023-03-13T01:00:00;48.13;;;23.50;;
18114;SDS011;9184;54.390;18.620;2023-03-13T01:00:30;45.93;;;21.90;;
18114;SDS011;9184;54.390;18.620;2023-03-13T01:01:07;49.67;;;21.53;;
18114;SDS011;9184;54.390;18.620;2023-03-13T01:01:38;50.80;;;23.50;;
18114;SDS011;9184;54.390;18.620;2023-03-13T01:02:10;47.87;;;22.23;;
18114;SDS011;9184;54.390;18.620;2023-03-13T01:02:40;50.43;;;23.13;;
18114;SDS011;9184;54.390;18.620;2023-03-13T01:03:11;41.83;;;21.83;;
18114;SDS011;9184;54.390;18.620;2023-03-13T01:03:42;50.77;;;22.40;;
18114;SDS011;9184;54.390;18.620;2023-03-13T01:04:14;46.40;;;22.57;;
18114;SDS011;9184;54.390;18.620;2023-03-13T01:04:44;45.30;;;21.73;;
18114;SDS011;9184;54.390;18.620;2023-03-13T01:05:16;48.90;;;22.00;;
18114;SDS011;9184;54.390;18.620;2023-03-13T01:05:53;44.43;;;21.07;;
18114;SDS011;9184;54.390;18.620;2023-03-13T01:06:25;45.90;;;20.27;;
18114;SDS011;9184;54.390;18.620;2023-03-13T01:06:57;44.33;;;19.13;;
18114;SDS011;9184;54.390;18.620;2023-03-13T01:07:28;45.90;;;19.47;;
18114;SDS011;9184;54.390;18.620;2023-03-13T01:07:58;42.53;;;20.43;;
18114;SDS011;9184;54.390;18.620;2023-03-13T01:08:30;42.83;;;20.50;;
18114;SDS011;9184;54.390;18.620;2023-03-13T01:09:00;38.83;;;19.37;;
18114;SDS011;9184;54.390;18.620;2023-03-13T01:09:31;42.13;;;21.63;;
18114;SDS011;9184;54.390;18.620;2023-03-13T01:10:03;47.27;;;21.47;;
18114;SDS011;9184;54.390;18.620;2023-03-13T01:10:33;46.97;;;19.97;;
18114;SDS011;9184;54.390;18.620;2023-03-13T01:11:05;45.23;;;19.97;;
18114;SDS011;9184;54.390;18.620;2023-03-13T01:11:37;42.90;;;20.37;;
18114;SDS011;9184;54.390;18.620;2023-03-13T01:12:09;46.42;;;20.25;;
18114;SDS011;9184;54.390;18.620;2023-03-13T01:12:39;40.87;;;20.57;;
18114;SDS011;9184;54.390;18.620;2023-03-13T01:13:11;44.10;;;20.10;;
18114;SDS011;9184;54.390;18.620;2023-03-13T01:13:41;40.67;;;19.37;;
18114;SDS011;9184;54.390;18.620;2023-03-13T01:14:14;39.27;;;18.90;;
18114;SDS011;9184;54.390;18.620;2023-03-13T01:14:44;42.30;;;20.55;;
18114;SDS011;9184;54.390;18.620;2023-03-13T01:15:15;41.03;;;20.57;;
18114;SDS011;9184;54.390;18.620;2023-03-13T01:15:48;39.07;;;19.23;;
18114;SDS011;9184;54.390;18.620;2023-03-13T01:16:19;45.43;;;20.57;;
18114;SDS011;9184;54.390;18.620;2023-03-13T01:16:50;49.10;;;19.83;;
18114;SDS011;9184;54.390;18.620;2023-03-13T01:17:22;39.50;;;20.47;;
18114;SDS011;9184;54.390;18.620;2023-03-13T01:17:52;47.83;;;20.90;;
18114;SDS011;9184;54.390;18.620;2023-03-13T01:18:23;46.87;;;20.30;;
18114;SDS011;9184;54.390;18.620;2023-03-13T01:18:54;50.73;;;20.97;;
18114;SDS011;9184;54.390;18.620;2023-03-13T01:19:25;42.43;;;19.13;;
18114;SDS011;9184;54.390;18.620;2023-03-13T01:19:56;46.00;;;21.07;;
18114;SDS011;9184;54.390;18.620;2023-03-13T01:20:27;44.37;;;20.07;;
18114;SDS011;9184;54.390;18.620;2023-03-13T01:20:59;41.93;;;18.93;;
18114;SDS011;9184;54.390;18.620;2023-03-13T01:21:29;42.83;;;20.80;;
18114;SDS011;9184;54.390;18.620;2023-03-13T01:22:00;41.77;;;18.37;;
18114;SDS011;9184;54.390;18.620;2023-03-13T01:22:31;41.10;;;19.17;;
18114;SDS011;9184;54.390;18.620;2023-03-13T01:23:02;37.43;;;19.93;;
18114;SDS011;9184;54.390;18.620;2023-03-13T01:23:32;42.37;;;19.63;;
18114;SDS011;9184;54.390;18.620;2023-03-13T01:24:03;43.27;;;19.10;;
18114;SDS011;9184;54.390;18.620;2023-03-13T01:24:35;45.27;;;20.90;;
18114;SDS011;9184;54.390;18.620;2023-03-13T01:25:06;35.83;;;19.10;;
18114;SDS011;9184;54.390;18.620;2023-03-13T01:25:36;44.03;;;20.07;;
18114;SDS011;9184;54.390;18.620;2023-03-13T01:26:09;42.80;;;19.93;;
18114;SDS011;9184;54.390;18.620;2023-03-13T01:26:41;45.60;;;20.10;;
18114;SDS011;9184;54.390;18.620;2023-03-13T01:27:12;41.43;;;19.70;;
18114;SDS011;9184;54.390;18.620;2023-03-13T01:27:42;43.70;;;21.20;;
18114;SDS011;9184;54.390;18.620;2023-03-13T01:28:13;38.80;;;18.27;;
18114;SDS011;9184;54.390;18.620;2023-03-13T01:28:44;38.17;;;16.30;;
18114;SDS011;9184;54.390;18.620;2023-03-13T01:29:15;32.20;;;17.80;;
18114;SDS011;9184;54.390;18.620;2023-03-13T01:29:46;45.07;;;20.43;;
18114;SDS011;9184;54.390;18.620;2023-03-13T01:30:16;40.93;;;19.43;;
18114;SDS011;9184;54.390;18.620;2023-03-13T01:30:48;42.70;;;17.93;;
18114;SDS011;9184;54.390;18.620;2023-03-13T01:31:19;48.57;;;21.07;;
18114;SDS011;9184;54.390;18.620;2023-03-13T01:31:50;47.80;;;21.80;;
18114;SDS011;9184;54.390;18.620;2023-03-13T01:32:21;51.73;;;20.90;;
18114;SDS011;9184;54.390;18.620;2023-03-13T01:32:52;40.43;;;18.77;;
18114;SDS011;9184;54.390;18.620;2023-03-13T01:33:22;37.97;;;18.77;;
18114;SDS011;9184;54.390;18.620;2023-03-13T01:33:55;44.07;;;19.83;;
18114;SDS011;9184;54.390;18.620;2023-03-13T01:34:25;44.30;;;21.00;;
18114;SDS011;9184;54.390;18.620;2023-03-13T01:34:56;50.87;;;22.37;;
18114;SDS011;9184;54.390;18.620;2023-03-13T01:35:26;47.77;;;20.30;;
18114;SDS011;9184;54.390;18.620;2023-03-13T01:35:59;37.63;;;20.50;;
18114;SDS011;9184;54.390;18.620;2023-03-13T01:36:30;41.77;;;19.67;;
18114;SDS011;9184;54.390;18.620;2023-03-13T01:37:01;41.67;;;17.90;;
18114;SDS011;9184;54.390;18.620;2023-03-13T01:37:32;48.20;;;21.50;;
18114;SDS011;9184;54.390;18.620;2023-03-13T01:38:03;46.03;;;21.40;;
18114;SDS011;9184;54.390;18.620;2023-03-13T01:38:33;40.37;;;20.37;;
18114;SDS011;9184;54.390;18.620;2023-03-13T01:39:05;48.40;;;22.03;;
18114;SDS011;9184;54.390;18.620;2023-03-13T01:39:36;44.50;;;21.97;;
18114;SDS011;9184;54.390;18.620;2023-03-13T01:40:07;41.17;;;19.70;;
18114;SDS011;9184;54.390;18.620;2023-03-13T01:40:38;46.03;;;20.20;;
18114;SDS011;9184;54.390;18.620;2023-03-13T01:41:10;43.20;;;20.53;;
18114;SDS011;9184;54.390;18.620;2023-03-13T01:41:42;42.20;;;20.83;;
18114;SDS011;9184;54.390;18.620;2023-03-13T01:42:12;44.33;;;19.80;;
18114;SDS011;9184;54.390;18.620;2023-03-13T01:42:47;50.70;;;20.57;;
18114;SDS011;9184;54.390;18.620;2023-03-13T01:43:19;45.80;;;20.43;;
18114;SDS011;9184;54.390;18.620;2023-03-13T01:43:50;37.60;;;19.50;;
18114;SDS011;9184;54.390;18.620;2023-03-13T01:44:22;41.73;;;20.83;;
18114;SDS011;9184;54.390;18.620;2023-03-13T01:44:53;42.77;;;18.50;;
18114;SDS011;9184;54.390;18.620;2023-03-13T01:46:15;37.33;;;19.97;;
18114;SDS011;9184;54.390;18.620;2023-03-13T01:46:46;38.80;;;19.37;;
18114;SDS011;9184;54.390;18.620;2023-03-13T01:47:18;45.50;;;20.90;;
18114;SDS011;9184;54.390;18.620;2023-03-13T01:47:48;36.17;;;19.37;;
18114;SDS011;9184;54.390;18.620;2023-03-13T01:48:19;37.70;;;18.80;;
18114;SDS011;9184;54.390;18.620;2023-03-13T01:48:50;47.17;;;20.63;;
18114;SDS011;9184;54.390;18.620;2023-03-13T01:49:24;41.00;;;19.63;;
18114;SDS011;9184;54.390;18.620;2023-03-13T01:49:57;38.90;;;18.20;;
18114;SDS011;9184;54.390;18.620;2023-03-13T01:50:27;38.17;;;19.77;;
18114;SDS011;9184;54.390;18.620;2023-03-13T01:50:59;38.20;;;19.80;;
18114;SDS011;9184;54.390;18.620;2023-03-13T01:51:31;44.87;;;21.13;;
18114;SDS011;9184;54.390;18.620;2023-03-13T01:52:04;51.45;;;20.83;;
18114;SDS011;9184;54.390;18.620;2023-03-13T01:52:37;47.03;;;19.80;;
18114;SDS011;9184;54.390;18.620;2023-03-13T01:53:08;38.60;;;19.20;;
18114;SDS011;9184;54.390;18.620;2023-03-13T01:53:40;47.60;;;21.10;;
18114;SDS011;9184;54.390;18.620;2023-03-13T01:54:13;43.63;;;19.37;;
18114;SDS011;9184;54.390;18.620;2023-03-13T01:54:45;38.43;;;19.53;;
18114;SDS011;9184;54.390;18.620;2023-03-13T01:55:18;42.90;;;19.67;;
18114;SDS011;9184;54.390;18.620;2023-03-13T01:55:48;39.80;;;20.23;;
18114;SDS011;9184;54.390;18.620;2023-03-13T01:56:20;41.17;;;20.03;;
18114;SDS011;9184;54.390;18.620;2023-03-13T01:56:55;48.73;;;21.73;;
18114;SDS011;9184;54.390;18.620;2023-03-13T01:57:27;43.43;;;21.77;;
18114;SDS011;9184;54.390;18.620;2023-03-13T01:58:00;42.90;;;20.97;;
18114;SDS011;9184;54.390;18.620;2023-03-13T01:58:31;40.33;;;20.13;;
18114;SDS011;9184;54.390;18.620;2023-03-13T01:59:02;40.77;;;19.70;;
18114;SDS011;9184;54.390;18.620;2023-03-13T01:59:36;45.57;;;20.33;;
18114;SDS011;9184;54.390;18.620;2023-03-13T02:00:10;38.77;;;18.43;;
18114;SDS011;9184;54.390;18.620;2023-03-13T02:00:44;39.33;;;19.53;;
18114;SDS011;9184;54.390;18.620;2023-03-13T02:01:15;37.57;;;19.77;;
18114;SDS011;9184;54.390;18.620;2023-03-13T02:01:47;42.83;;;19.33;;
18114;SDS011;9184;54.390;18.620;2023-03-13T02:02:18;40.23;;;19.97;;
18114;SDS011;9184;54.390;18.620;2023-03-13T02:02:51;44.37;;;20.70;;
18114;SDS011;9184;54.390;18.620;2023-03-13T02:03:23;41.23;;;19.23;;
18114;SDS011;9184;54.390;18.620;2023-03-13T02:03:55;41.00;;;19.87;;
18114;SDS011;9184;54.390;18.620;2023-03-13T02:04:26;45.83;;;21.17;;
18114;SDS011;9184;54.390;18.620;2023-03-13T02:05:00;41.83;;;19.27;;
18114;SDS011;9184;54.390;18.620;2023-03-13T02:05:31;44.30;;;20.17;;
18114;SDS011;9184;54.390;18.620;2023-03-13T02:06:03;43.07;;;19.03;;
18114;SDS011;9184;54.390;18.620;2023-03-13T02:06:35;43.90;;;20.73;;
18114;SDS011;9184;54.390;18.620;2023-03-13T02:07:08;40.30;;;19.63;;
18114;SDS011;9184;54.390;18.620;2023-03-13T02:07:42;43.63;;;20.47;;
18114;SDS011;9184;54.390;18.620;2023-03-13T02:08:15;39.30;;;18.70;;
18114;SDS011;9184;54.390;18.620;2023-03-13T02:08:49;48.27;;;19.20;;
18114;SDS011;9184;54.390;18.620;2023-03-13T02:09:23;37.03;;;18.73;;
18114;SDS011;9184;54.390;18.620;2023-03-13T02:09:55;36.47;;;18.53;;
18114;SDS011;9184;54.390;18.620;2023-03-13T02:10:26;39.37;;;17.20;;
18114;SDS011;9184;54.390;18.620;2023-03-13T02:11:01;35.63;;;19.23;;
18114;SDS011;9184;54.390;18.620;2023-03-13T02:11:35;33.80;;;18.33;;
18114;SDS011;9184;54.390;18.620;2023-03-13T02:12:10;42.77;;;18.93;;
18114;SDS011;9184;54.390;18.620;2023-03-13T02:12:42;39.77;;;16.93;;
18114;SDS011;9184;54.390;18.620;2023-03-13T02:13:13;37.87;;;18.97;;
18114;SDS011;9184;54.390;18.620;2023-03-13T02:13:46;41.90;;;19.23;;
18114;SDS011;9184;54.390;18.620;2023-03-13T02:14:18;34.20;;;18.23;;
18114;SDS011;9184;54.390;18.620;2023-03-13T02:14:49;35.53;;;17.83;;
18114;SDS011;9184;54.390;18.620;2023-03-13T02:15:22;41.37;;;20.77;;
18114;SDS011;9184;54.390;18.620;2023-03-13T02:15:53;37.97;;;19.67;;
18114;SDS011;9184;54.390;18.620;2023-03-13T02:16:24;34.00;;;17.77;;
18114;SDS011;9184;54.390;18.620;2023-03-13T02:16:56;38.13;;;18.13;;
18114;SDS011;9184;54.390;18.620;2023-03-13T02:17:27;44.10;;;18.60;;
18114;SDS011;9184;54.390;18.620;2023-03-13T02:17:58;39.50;;;18.30;;
18114;SDS011;9184;54.390;18.620;2023-03-13T02:18:30;48.60;;;19.83;;
18114;SDS011;9184;54.390;18.620;2023-03-13T02:19:01;45.57;;;20.27;;
18114;SDS011;9184;54.390;18.620;2023-03-13T02:19:35;41.43;;;18.80;;
18114;SDS011;9184;54.390;18.620;2023-03-13T02:20:08;41.07;;;19.00;;
18114;SDS011;9184;54.390;18.620;2023-03-13T02:20:39;40.80;;;20.20;;
18114;SDS011;9184;54.390;18.620;2023-03-13T02:21:11;36.70;;;17.87;;
18114;SDS011;9184;54.390;18.620;2023-03-13T02:21:46;40.50;;;19.63;;
18114;SDS011;9184;54.390;18.620;2023-03-13T02:22:19;37.63;;;19.57;;
18114;SDS011;9184;54.390;18.620;2023-03-13T02:22:52;36.57;;;18.90;;
18114;SDS011;9184;54.390;18.620;2023-03-13T02:23:29;40.10;;;20.00;;
18114;SDS011;9184;54.390;18.620;2023-03-13T02:24:02;40.27;;;19.80;;
18114;SDS011;9184;54.390;18.620;2023-03-13T02:24:38;42.07;;;19.70;;
18114;SDS011;9184;54.390;18.620;2023-03-13T02:25:14;35.33;;;18.13;;
18114;SDS011;9184;54.390;18.620;2023-03-13T02:25:51;44.80;;;18.90;;
18114;SDS011;9184;54.390;18.620;2023-03-13T02:26:22;39.43;;;19.37;;
18114;SDS011;9184;54.390;18.620;2023-03-13T02:26:53;36.57;;;19.57;;
18114;SDS011;9184;54.390;18.620;2023-03-13T02:27:24;38.83;;;19.17;;
18114;SDS011;9184;54.390;18.620;2023-03-13T02:27:56;39.37;;;19.90;;
18114;SDS011;9184;54.390;18.620;2023-03-13T02:28:28;37.97;;;18.90;;
18114;SDS011;9184;54.390;18.620;2023-03-13T02:29:02;41.60;;;19.83;;
18114;SDS011;9184;54.390;18.620;2023-03-13T02:29:34;40.60;;;19.17;;
18114;SDS011;9184;54.390;18.620;2023-03-13T02:30:05;41.17;;;19.90;;
18114;SDS011;9184;54.390;18.620;2023-03-13T02:30:35;38.73;;;19.17;;
18114;SDS011;9184;54.390;18.620;2023-03-13T02:31:07;36.97;;;20.23;;
18114;SDS011;9184;54.390;18.620;2023-03-13T02:31:38;44.60;;;18.93;;
18114;SDS011;9184;54.390;18.620;2023-03-13T02:32:09;46.30;;;20.97;;
18114;SDS011;9184;54.390;18.620;2023-03-13T02:32:41;41.50;;;20.50;;
18114;SDS011;9184;54.390;18.620;2023-03-13T02:33:12;39.80;;;20.77;;
18114;SDS011;9184;54.390;18.620;2023-03-13T02:33:43;39.40;;;20.97;;
18114;SDS011;9184;54.390;18.620;2023-03-13T02:34:14;41.47;;;20.60;;
18114;SDS011;9184;54.390;18.620;2023-03-13T02:34:49;37.23;;;21.20;;
18114;SDS011;9184;54.390;18.620;2023-03-13T02:35:21;43.00;;;20.83;;
18114;SDS011;9184;54.390;18.620;2023-03-13T02:35:52;43.07;;;20.93;;
18114;SDS011;9184;54.390;18.620;2023-03-13T02:36:24;39.00;;;20.23;;
18114;SDS011;9184;54.390;18.620;2023-03-13T02:36:56;44.47;;;20.80;;
18114;SDS011;9184;54.390;18.620;2023-03-13T02:37:26;39.63;;;20.33;;
18114;SDS011;9184;54.390;18.620;2023-03-13T02:37:59;40.87;;;19.63;;
18114;SDS011;9184;54.390;18.620;2023-03-13T02:38:32;40.20;;;20.50;;
18114;SDS011;9184;54.390;18.620;2023-03-13T02:39:04;41.30;;;20.70;;
18114;SDS011;9184;54.390;18.620;2023-03-13T02:39:36;37.73;;;20.33;;
18114;SDS011;9184;54.390;18.620;2023-03-13T02:40:08;38.33;;;20.23;;
18114;SDS011;9184;54.390;18.620;2023-03-13T02:40:41;40.93;;;20.00;;
18114;SDS011;9184;54.390;18.620;2023-03-13T02:41:14;38.47;;;21.33;;
18114;SDS011;9184;54.390;18.620;2023-03-13T02:41:45;42.57;;;22.00;;
18114;SDS011;9184;54.390;18.620;2023-03-13T02:42:16;41.23;;;20.50;;
18114;SDS011;9184;54.390;18.620;2023-03-13T02:42:49;42.23;;;21.23;;
18114;SDS011;9184;54.390;18.620;2023-03-13T02:43:21;44.03;;;22.23;;
18114;SDS011;9184;54.390;18.620;2023-03-13T02:43:53;43.87;;;19.73;;
18114;SDS011;9184;54.390;18.620;2023-03-13T02:44:25;42.27;;;21.63;;
18114;SDS011;9184;54.390;18.620;2023-03-13T02:44:56;41.93;;;21.27;;
18114;SDS011;9184;54.390;18.620;2023-03-13T02:45:26;40.57;;;20.47;;
18114;SDS011;9184;54.390;18.620;2023-03-13T02:46:02;40.60;;;20.80;;
18114;SDS011;9184;54.390;18.620;2023-03-13T02:46:41;44.33;;;21.17;;
18114;SDS011;9184;54.390;18.620;2023-03-13T02:47:16;44.23;;;21.10;;
18114;SDS011;9184;54.390;18.620;2023-03-13T02:47:47;46.63;;;21.53;;
18114;SDS011;9184;54.390;18.620;2023-03-13T02:48:26;41.50;;;21.37;;
18114;SDS011;9184;54.390;18.620;2023-03-13T02:48:57;40.00;;;19.47;;
18114;SDS011;9184;54.390;18.620;2023-03-13T02:49:29;42.30;;;19.83;;
18114;SDS011;9184;54.390;18.620;2023-03-13T02:49:59;45.50;;;21.67;;
18114;SDS011;9184;54.390;18.620;2023-03-13T02:50:30;39.67;;;20.93;;
18114;SDS011;9184;54.390;18.620;2023-03-13T02:51:02;42.47;;;21.40;;
18114;SDS011;9184;54.390;18.620;2023-03-13T02:51:35;44.37;;;20.67;;
18114;SDS011;9184;54.390;18.620;2023-03-13T02:52:09;37.40;;;19.97;;
18114;SDS011;9184;54.390;18.620;2023-03-13T02:52:42;38.00;;;19.20;;
18114;SDS011;9184;54.390;18.620;2023-03-13T02:53:14;40.10;;;20.03;;
18114;SDS011;9184;54.390;18.620;2023-03-13T02:53:45;45.20;;;21.40;;
18114;SDS011;9184;54.390;18.620;2023-03-13T02:54:18;42.00;;;21.63;;
18114;SDS011;9184;54.390;18.620;2023-03-13T02:54:50;38.07;;;20.73;;
18114;SDS011;9184;54.390;18.620;2023-03-13T02:55:22;46.73;;;21.83;;
18114;SDS011;9184;54.390;18.620;2023-03-13T02:55:55;40.80;;;19.90;;
18114;SDS011;9184;54.390;18.620;2023-03-13T02:56:27;35.90;;;19.83;;
18114;SDS011;9184;54.390;18.620;2023-03-13T02:57:00;40.53;;;20.43;;
18114;SDS011;9184;54.390;18.620;2023-03-13T02:57:32;39.97;;;20.63;;
18114;SDS011;9184;54.390;18.620;2023-03-13T02:58:04;46.23;;;20.33;;
18114;SDS011;9184;54.390;18.620;2023-03-13T02:58:37;39.80;;;20.23;;
18114;SDS011;9184;54.390;18.620;2023-03-13T02:59:09;43.03;;;20.17;;
18114;SDS011;9184;54.390;18.620;2023-03-13T02:59:39;41.73;;;20.97;;
18114;SDS011;9184;54.390;18.620;2023-03-13T03:00:10;39.27;;;21.40;;
18114;SDS011;9184;54.390;18.620;2023-03-13T03:00:43;41.03;;;19.83;;
18114;SDS011;9184;54.390;18.620;2023-03-13T03:01:14;39.20;;;20.33;;
18114;SDS011;9184;54.390;18.620;2023-03-13T03:01:45;48.00;;;21.67;;
18114;SDS011;9184;54.390;18.620;2023-03-13T03:02:16;44.20;;;21.53;;
18114;SDS011;9184;54.390;18.620;2023-03-13T03:02:46;44.27;;;21.70;;
18114;SDS011;9184;54.390;18.620;2023-03-13T03:03:17;39.60;;;20.90;;
18114;SDS011;9184;54.390;18.620;2023-03-13T03:03:48;49.00;;;21.50;;
18114;SDS011;9184;54.390;18.620;2023-03-13T03:04:20;43.03;;;20.47;;
18114;SDS011;9184;54.390;18.620;2023-03-13T03:04:51;40.43;;;19.83;;
18114;SDS011;9184;54.390;18.620;2023-03-13T03:05:22;39.90;;;20.77;;
18114;SDS011;9184;54.390;18.620;2023-03-13T03:05:53;43.00;;;21.90;;